Time;durP1;ratioP1;P1;durP2;ratioP2;P2;SDS_P1;SDS_P2;PMS_P1;PMS_P2;Temp;Humidity;BMP_temperature;BMP_pressure;BME280_temperature;BME280_humidity;BME280_pressure;Samples;Min_cycle;Max_cycle;Signal;HPM_P1;HPM_P2
2021/09/08 00:00:24;;;;;;;;;;;;;;;15.55;69.45;97252.28;30001;982;1884;-61
2021/09/08 00:00:55;;;;;;;;;;;;;;;15.54;69.26;97256.16;30001;982;1880;-61
2021/09/08 00:01:26;;;;;;;;;;;;;;;15.53;69.30;97254.53;30001;983;1884;-61
2021/09/08 00:01:57;;;;;;;;;;;;;;;15.53;69.42;97260.00;30001;983;1879;-62
2021/09/08 00:02:28;;;;;;;;;;;;;;;15.53;69.58;97260.00;30001;983;1866;-61
2021/09/08 00:03:00;;;;;;;;;;;;;;;15.51;69.59;97260.31;30001;983;1875;-61
2021/09/08 00:03:30;;;;;;;;;;;;;;;15.51;69.60;97256.78;30001;983;1884;-62
2021/09/08 00:04:01;;;;;;;;;;;;;;;15.50;69.27;97255.97;30001;983;1880;-60
2021/09/08 00:04:32;;;;;;;;;;;;;;;15.50;69.88;97257.91;30001;983;1884;-60
2021/09/08 00:05:04;;;;;;;;;;;;;;;15.50;69.62;97250.50;30001;983;1880;-61
2021/09/08 00:05:36;;;;;;;;;;;;;;;15.51;69.62;97262.25;30001;982;1884;-62
2021/09/08 00:06:06;;;;;;;;;;;;;;;15.51;69.28;97256.78;30001;982;1862;-62
2021/09/08 00:06:37;;;;;;;;;;;;;;;15.51;69.58;97259.50;30001;982;1880;-60
2021/09/08 00:07:08;;;;;;;;;;;;;;;15.50;69.34;97255.97;30001;982;1880;-61
2021/09/08 00:07:39;;;;;;;;;;;;;;;15.50;69.48;97257.91;30001;982;1884;-62
2021/09/08 00:08:09;;;;;;;;;;;;;;;15.49;69.25;97259.00;30001;982;1880;-62
2021/09/08 00:08:40;;;;;;;;;;;;;;;15.47;69.57;97256.59;30001;983;1884;-61
2021/09/08 00:09:11;;;;;;;;;;;;;;;15.49;69.42;97253.53;30001;983;1879;-61
2021/09/08 00:09:42;;;;;;;;;;;;;;;15.50;69.55;97260.62;30001;983;1884;-62
2021/09/08 00:10:13;;;;;;;;;;;;;;;15.49;69.15;97246.16;30001;983;1879;-64
2021/09/08 00:10:43;;;;;;;;;;;;;;;15.50;69.44;97255.16;30001;983;1884;-63
2021/09/08 00:11:14;;;;;;;;;;;;;;;15.49;69.07;97250.81;30001;983;1862;-61
2021/09/08 00:11:46;;;;;;;;;;;;;;;15.49;69.34;97248.06;30001;983;1880;-61
2021/09/08 00:12:16;;;;;;;;;;;;;;;15.49;69.15;97254.34;30001;983;1880;-65
2021/09/08 00:12:47;;;;;;;;;;;;;;;15.50;69.54;97244.22;30001;982;1884;-60
2021/09/08 00:13:18;;;;;;;;;;;;;;;15.51;69.35;97245.84;30001;982;1862;-63
2021/09/08 00:13:49;;;;;;;;;;;;;;;15.51;69.27;97248.56;30001;982;1880;-61
2021/09/08 00:14:20;;;;;;;;;;;;;;;15.51;69.34;97246.62;30001;982;1880;-61
2021/09/08 00:14:51;;;;;;;;;;;;;;;15.51;69.29;97251.31;30001;982;1884;-63
2021/09/08 00:15:23;;;;;;;;;;;;;;;15.53;69.30;97243.59;30001;983;1879;-65
2021/09/08 00:15:54;;;;;;;;;;;;;;;15.52;69.22;97247.44;30001;983;1866;-62
2021/09/08 00:16:25;;;;;;;;;;;;;;;15.52;69.25;97241.97;30001;983;1875;-65
2021/09/08 00:16:56;;;;;;;;;;;;;;;15.52;69.10;97244.72;30001;983;1884;-65
2021/09/08 00:17:27;;;;;;;;;;;;;;;15.53;69.42;97249.06;30001;983;1879;-61
2021/09/08 00:17:58;;;;;;;;;;;;;;;15.52;69.44;97245.53;30001;983;1884;-64
2021/09/08 00:18:29;;;;;;;;;;;;;;;15.53;68.97;97246.31;30001;983;1879;-65
2021/09/08 00:19:00;;;;;;;;;;;;;;;15.51;69.11;97241.16;30001;983;1884;-61
2021/09/08 00:19:32;;;;;;;;;;;;;;;15.51;69.14;97243.09;30001;983;1862;-64
2021/09/08 00:20:05;;;;;;;;;;;;;;;15.50;69.21;97245.03;30001;983;1880;-62
2021/09/08 00:20:36;;;;;;;;;;;;;;;15.50;69.23;97241.47;30001;982;1880;-61
2021/09/08 00:21:08;;;;;;;;;;;;;;;15.50;69.45;97244.22;30001;982;1884;-64
2021/09/08 00:21:39;;;;;;;;;;;;;;;15.49;69.16;97239.88;30001;982;1880;-61
2021/09/08 00:22:10;;;;;;;;;;;;;;;15.48;69.46;97235.53;30001;959;1907;-61
2021/09/08 00:22:41;;;;;;;;;;;;;;;15.47;69.41;97242.13;30001;982;1880;-63
2021/09/08 00:23:12;;;;;;;;;;;;;;;15.46;69.33;97243.22;30001;983;1883;-63
2021/09/08 00:23:43;;;;;;;;;;;;;;;15.46;69.15;97237.75;30001;983;1879;-61
2021/09/08 00:24:14;;;;;;;;;;;;;;;15.45;69.14;97234.22;30001;983;1866;-62
2021/09/08 00:24:48;;;;;;;;;;;;;;;15.46;69.15;97232.28;30001;983;1875;-61
2021/09/08 00:25:19;;;;;;;;;;;;;;;15.45;69.59;97241.63;30001;983;1884;-64
2021/09/08 00:25:50;;;;;;;;;;;;;;;15.46;69.15;97237.75;30001;983;1879;-61
2021/09/08 00:26:24;;;;;;;;;;;;;;;15.45;69.35;97233.41;30001;983;1884;-62
2021/09/08 00:26:55;;;;;;;;;;;;;;;15.46;69.32;97235.03;30001;983;1862;-61
2021/09/08 00:27:26;;;;;;;;;;;;;;;15.45;69.47;97236.16;30001;983;1880;-61
2021/09/08 00:27:56;;;;;;;;;;;;;;;15.44;69.62;97235.34;30001;982;1880;-62
2021/09/08 00:28:27;;;;;;;;;;;;;;;15.42;69.45;97241.13;30001;982;1884;-62
2021/09/08 00:28:58;;;;;;;;;;;;;;;15.42;69.53;97232.94;30001;982;1880;-62
2021/09/08 00:29:29;;;;;;;;;;;;;;;15.42;69.93;97232.94;30001;982;1884;-62
2021/09/08 00:29:59;;;;;;;;;;;;;;;15.41;69.75;97234.03;30001;982;1880;-61
2021/09/08 00:30:31;;;;;;;;;;;;;;;15.40;69.98;97231.63;30001;983;1883;-62
2021/09/08 00:31:01;;;;;;;;;;;;;;;15.39;70.00;97239.03;30001;983;1879;-61
2021/09/08 00:31:33;;;;;;;;;;;;;;;15.39;70.27;97233.56;30001;983;1884;-62
2021/09/08 00:32:04;;;;;;;;;;;;;;;15.38;70.09;97231.94;30001;983;1862;-61
2021/09/08 00:32:35;;;;;;;;;;;;;;;15.37;70.47;97230.31;30001;983;1879;-62
2021/09/08 00:33:06;;;;;;;;;;;;;;;15.36;70.56;97223.25;30001;983;1879;-62
2021/09/08 00:33:37;;;;;;;;;;;;;;;15.35;70.61;97229.84;30001;983;1884;-62
2021/09/08 00:34:08;;;;;;;;;;;;;;;15.34;70.38;97232.88;30001;983;1880;-62
2021/09/08 00:34:39;;;;;;;;;;;;;;;15.33;70.82;97234.00;30001;982;1884;-61
2021/09/08 00:35:10;;;;;;;;;;;;;;;15.32;70.63;97233.19;30001;982;1880;-62
2021/09/08 00:35:41;;;;;;;;;;;;;;;15.31;70.85;97225.31;30001;982;1884;-62
2021/09/08 00:36:12;;;;;;;;;;;;;;;15.29;70.75;97228.34;30001;982;1880;-61
2021/09/08 00:36:43;;;;;;;;;;;;;;;15.28;71.00;97221.28;30001;982;1884;-62
2021/09/08 00:37:14;;;;;;;;;;;;;;;15.27;70.92;97225.13;30001;982;1862;-62
2021/09/08 00:37:45;;;;;;;;;;;;;;;15.26;71.22;97218.03;30001;982;1880;-62
2021/09/08 00:38:16;;;;;;;;;;;;;;;15.25;71.34;97227.37;30001;983;1879;-62
2021/09/08 00:38:47;;;;;;;;;;;;;;;15.24;71.37;97225.78;30001;983;1884;-62
2021/09/08 00:39:18;;;;;;;;;;;;;;;15.23;70.97;97224.16;30001;983;1879;-62
2021/09/08 00:39:48;;;;;;;;;;;;;;;15.22;70.97;97217.09;30001;983;1884;-62
2021/09/08 00:40:21;;;;;;;;;;;;;;;15.23;70.96;97215.16;30001;983;1879;-62
2021/09/08 00:40:56;;;;;;;;;;;;;;;15.21;70.97;97223.69;30001;983;1884;-60
2021/09/08 00:41:33;;;;;;;;;;;;;;;15.22;70.75;97221.75;30001;983;1880;-60
2021/09/08 00:42:13;;;;;;;;;;;;;;;15.20;70.60;97222.06;30001;983;1884;-61
2021/09/08 00:42:44;;;;;;;;;;;;;;;15.20;70.68;97218.53;30001;982;1862;-62
2021/09/08 00:43:15;;;;;;;;;;;;;;;15.18;70.93;97218.84;30001;982;1880;-61
2021/09/08 00:43:46;;;;;;;;;;;;;;;15.18;70.66;97216.09;30001;982;1880;-61
2021/09/08 00:44:17;;;;;;;;;;;;;;;15.16;70.54;97215.59;30001;982;1884;-62
2021/09/08 00:44:48;;;;;;;;;;;;;;;15.16;70.95;97223.00;30001;982;1880;-61
2021/09/08 00:45:19;;;;;;;;;;;;;;;15.15;70.87;97222.19;30001;982;1867;-62
2021/09/08 00:45:53;;;;;;;;;;;;;;;15.15;70.97;97222.19;30001;983;1857;-62
2021/09/08 00:46:24;;;;;;;;;;;;;;;15.13;70.56;97227.16;30001;983;1883;-62
2021/09/08 00:46:56;;;;;;;;;;;;;;;15.13;70.77;97218.16;30001;983;1879;-62
2021/09/08 00:47:27;;;;;;;;;;;;;;;15.12;70.91;97219.28;30001;983;1884;-61
2021/09/08 00:47:58;;;;;;;;;;;;;;;15.09;70.69;97217.97;30001;983;1879;-61
2021/09/08 00:48:29;;;;;;;;;;;;;;;15.08;70.90;97227.28;30001;983;1866;-61
2021/09/08 00:49:00;;;;;;;;;;;;;;;15.07;70.91;97220.22;30001;983;1875;-62
2021/09/08 00:49:31;;;;;;;;;;;;;;;15.05;71.02;97219.72;30001;983;1884;-61
2021/09/08 00:50:03;;;;;;;;;;;;;;;15.02;70.94;97223.88;30001;982;1880;-62
2021/09/08 00:50:34;;;;;;;;;;;;;;;15.01;71.26;97221.47;30001;982;1884;-62
2021/09/08 00:51:05;;;;;;;;;;;;;;;14.99;70.88;97223.69;30001;982;1880;-62
2021/09/08 00:51:36;;;;;;;;;;;;;;;14.98;71.23;97211.16;30001;982;1884;-62
2021/09/08 00:52:09;;;;;;;;;;;;;;;14.99;70.92;97223.69;30001;982;1880;-62
2021/09/08 00:52:40;;;;;;;;;;;;;;;14.98;71.59;97224.81;30001;966;1900;-62
2021/09/08 00:53:12;;;;;;;;;;;;;;;14.97;71.71;97220.47;30001;983;1861;-62
2021/09/08 00:53:43;;;;;;;;;;;;;;;14.96;71.39;97218.87;30001;983;1861;-61
2021/09/08 00:54:15;;;;;;;;;;;;;;;14.94;71.34;97216.44;30001;983;1879;-61
2021/09/08 00:54:47;;;;;;;;;;;;;;;14.92;71.57;97213.22;30001;983;1884;-61
2021/09/08 00:55:20;;;;;;;;;;;;;;;14.91;71.26;97221.72;30001;983;1879;-62
2021/09/08 00:55:51;;;;;;;;;;;;;;;14.89;71.42;97219.34;30001;983;1884;-61
2021/09/08 00:56:23;;;;;;;;;;;;;;;14.89;71.43;97221.25;30001;983;1880;-61
2021/09/08 00:56:55;;;;;;;;;;;;;;;14.88;71.90;97214.19;30001;983;1884;-62
2021/09/08 00:57:26;;;;;;;;;;;;;;;14.86;71.31;97216.41;30001;982;1880;-62
2021/09/08 00:57:57;;;;;;;;;;;;;;;14.85;71.41;97212.88;30001;982;1884;-62
2021/09/08 00:58:29;;;;;;;;;;;;;;;14.85;71.70;97223.00;30001;982;1880;-61
2021/09/08 00:59:00;;;;;;;;;;;;;;;14.85;71.64;97223.00;30001;982;1867;-61
2021/09/08 00:59:33;;;;;;;;;;;;;;;14.86;71.27;97219.16;30001;982;1854;-62
2021/09/08 01:00:05;;;;;;;;;;;;;;;14.84;71.30;97221.38;30001;982;1863;-62
2021/09/08 01:00:36;;;;;;;;;;;;;;;14.84;71.39;97213.19;30001;983;1853;-62
2021/09/08 01:01:07;;;;;;;;;;;;;;;14.84;71.70;97219.47;30001;983;1879;-62
2021/09/08 01:01:38;;;;;;;;;;;;;;;14.85;71.66;97209.34;30001;983;1857;-62
2021/09/08 01:02:09;;;;;;;;;;;;;;;14.85;71.53;97212.06;30001;983;1875;-62
2021/09/08 01:02:40;;;;;;;;;;;;;;;14.85;71.29;97214.78;30001;983;1875;-62
2021/09/08 01:03:11;;;;;;;;;;;;;;;14.84;71.33;97219.47;30001;983;1880;-61
2021/09/08 01:03:42;;;;;;;;;;;;;;;14.85;71.16;97212.06;30001;983;1875;-62
2021/09/08 01:04:14;;;;;;;;;;;;;;;14.85;71.54;97212.88;30001;983;1880;-62
2021/09/08 01:04:45;;;;;;;;;;;;;;;14.86;71.21;97213.69;30001;983;1875;-61
2021/09/08 01:05:16;;;;;;;;;;;;;;;14.85;71.47;97214.78;30001;982;1880;-60
2021/09/08 01:05:47;;;;;;;;;;;;;;;14.86;71.62;97213.69;30001;982;1858;-61
2021/09/08 01:06:20;;;;;;;;;;;;;;;14.86;71.59;97213.69;30001;982;1876;-62
2021/09/08 01:06:51;;;;;;;;;;;;;;;14.86;71.36;97213.69;30001;982;1876;-61
2021/09/08 01:07:21;;;;;;;;;;;;;;;14.86;71.68;97208.22;30001;983;1879;-62
2021/09/08 01:07:52;;;;;;;;;;;;;;;14.87;71.46;97215.28;30001;971;1895;-62
2021/09/08 01:08:23;;;;;;;;;;;;;;;14.86;71.77;97211.75;30001;983;1879;-62
2021/09/08 01:08:54;;;;;;;;;;;;;;;14.87;71.66;97215.28;30001;983;1857;-62
2021/09/08 01:09:25;;;;;;;;;;;;;;;14.87;71.48;97220.75;30001;983;1875;-62
2021/09/08 01:09:56;;;;;;;;;;;;;;;14.85;71.56;97212.06;30001;983;1875;-62
2021/09/08 01:10:28;;;;;;;;;;;;;;;14.86;71.50;97216.41;30001;983;1862;-61
2021/09/08 01:11:00;;;;;;;;;;;;;;;14.84;71.66;97210.44;30001;983;1871;-62
2021/09/08 01:11:31;;;;;;;;;;;;;;;14.84;71.67;97213.19;30001;983;1880;-62
2021/09/08 01:12:02;;;;;;;;;;;;;;;14.82;71.57;97218.97;30001;983;1875;-62
2021/09/08 01:12:33;;;;;;;;;;;;;;;14.81;71.91;97211.87;30001;982;1880;-62
2021/09/08 01:13:04;;;;;;;;;;;;;;;14.79;71.55;97216.03;30001;982;1875;-61
2021/09/08 01:13:35;;;;;;;;;;;;;;;14.79;71.97;97224.25;30001;982;1880;-62
2021/09/08 01:14:06;;;;;;;;;;;;;;;14.77;71.95;97221.00;30001;982;1876;-62
2021/09/08 01:14:37;;;;;;;;;;;;;;;14.74;71.97;97217.78;30001;982;1880;-61
2021/09/08 01:15:08;;;;;;;;;;;;;;;14.73;71.91;97213.44;30001;983;1875;-62
2021/09/08 01:15:39;;;;;;;;;;;;;;;14.71;71.71;97212.94;30001;983;1862;-61
2021/09/08 01:16:10;;;;;;;;;;;;;;;14.71;72.19;97218.41;30001;983;1871;-61
2021/09/08 01:16:41;;;;;;;;;;;;;;;14.69;72.29;97215.16;30001;983;1879;-62
2021/09/08 01:17:11;;;;;;;;;;;;;;;14.69;71.98;97212.44;30001;983;1875;-61
2021/09/08 01:17:43;;;;;;;;;;;;;;;14.70;72.13;97216.78;30001;983;1879;-62
2021/09/08 01:18:13;;;;;;;;;;;;;;;14.69;72.11;97215.16;30001;983;1875;-61
2021/09/08 01:18:45;;;;;;;;;;;;;;;14.69;72.35;97214.38;30001;983;1880;-62
2021/09/08 01:19:16;;;;;;;;;;;;;;;14.68;71.93;97213.56;30001;983;1858;-62
2021/09/08 01:19:47;;;;;;;;;;;;;;;14.67;72.22;97209.22;30001;983;1875;-61
2021/09/08 01:20:18;;;;;;;;;;;;;;;14.67;72.08;97217.41;30001;982;1875;-62
2021/09/08 01:20:49;;;;;;;;;;;;;;;14.65;72.30;97203.25;30001;982;1880;-60
2021/09/08 01:21:20;;;;;;;;;;;;;;;14.65;72.03;97216.91;30001;982;1858;-62
2021/09/08 01:21:51;;;;;;;;;;;;;;;14.67;72.42;97214.66;30001;982;1876;-61
2021/09/08 01:22:27;;;;;;;;;;;;;;;14.66;72.31;97207.59;30001;982;1858;-62
2021/09/08 01:22:58;;;;;;;;;;;;;;;14.65;71.93;97213.38;30001;983;1857;-62
2021/09/08 01:23:29;;;;;;;;;;;;;;;14.63;72.25;97210.94;30001;983;1875;-62
2021/09/08 01:24:07;;;;;;;;;;;;;;;14.62;72.17;97214.78;30001;983;1879;-62
2021/09/08 01:24:41;;;;;;;;;;;;;;;14.62;71.97;97209.34;30001;983;1875;-62
2021/09/08 01:25:15;;;;;;;;;;;;;;;14.62;72.46;97212.06;30001;986;1871;-62
2021/09/08 01:25:46;;;;;;;;;;;;;;;14.62;72.48;97203.06;30001;983;1880;-61
2021/09/08 01:26:17;;;;;;;;;;;;;;;14.62;72.41;97214.78;30001;983;1875;-62
2021/09/08 01:26:52;;;;;;;;;;;;;;;14.60;72.08;97211.56;30001;983;1849;-62
2021/09/08 01:27:24;;;;;;;;;;;;;;;14.60;72.41;97208.84;30001;983;1875;-60
2021/09/08 01:27:55;;;;;;;;;;;;;;;14.60;72.42;97206.09;30001;982;1862;-61
2021/09/08 01:28:26;;;;;;;;;;;;;;;14.60;72.08;97217.03;30001;982;1871;-61
2021/09/08 01:28:57;;;;;;;;;;;;;;;14.59;72.10;97212.69;30001;982;1880;-62
2021/09/08 01:29:27;;;;;;;;;;;;;;;14.59;72.15;97209.16;30001;982;1876;-62
2021/09/08 01:29:58;;;;;;;;;;;;;;;14.58;72.18;97210.25;30001;983;1879;-61
2021/09/08 01:30:29;;;;;;;;;;;;;;;14.57;72.32;97201.25;30001;983;1857;-61
2021/09/08 01:31:01;;;;;;;;;;;;;;;14.56;72.41;97205.09;30001;983;1875;-61
2021/09/08 01:31:32;;;;;;;;;;;;;;;14.56;72.34;97205.09;30001;983;1875;-62
2021/09/08 01:32:03;;;;;;;;;;;;;;;14.57;72.36;97211.37;30001;983;1862;-61
2021/09/08 01:32:35;;;;;;;;;;;;;;;14.57;72.43;97208.66;30001;968;1868;-61
2021/09/08 01:33:14;;;;;;;;;;;;;;;14.55;72.25;97206.25;30001;983;1879;-62
2021/09/08 01:33:45;;;;;;;;;;;;;;;14.56;72.21;97205.09;30001;983;1875;-60
2021/09/08 01:34:16;;;;;;;;;;;;;;;14.55;72.20;97206.25;30001;983;1880;-62
2021/09/08 01:34:51;;;;;;;;;;;;;;;14.57;72.26;97211.37;30001;983;1875;-61
2021/09/08 01:35:22;;;;;;;;;;;;;;;14.57;72.09;97209.47;30001;982;1862;-62
2021/09/08 01:35:53;;;;;;;;;;;;;;;14.58;72.09;97208.34;30001;982;1871;-61
2021/09/08 01:36:24;;;;;;;;;;;;;;;14.58;72.41;97200.16;30001;982;1880;-61
2021/09/08 01:36:55;;;;;;;;;;;;;;;14.57;72.32;97205.91;30001;982;1876;-62
2021/09/08 01:37:26;;;;;;;;;;;;;;;14.57;72.36;97211.37;30001;982;1880;-61
2021/09/08 01:37:57;;;;;;;;;;;;;;;14.57;72.02;97206.72;30001;983;1875;-61
2021/09/08 01:38:28;;;;;;;;;;;;;;;14.56;72.39;97205.09;30001;983;1879;-61
2021/09/08 01:38:58;;;;;;;;;;;;;;;14.55;72.08;97205.44;30001;983;1875;-61
2021/09/08 01:39:29;;;;;;;;;;;;;;;14.54;72.23;97206.56;30001;983;1879;-61
2021/09/08 01:40:00;;;;;;;;;;;;;;;14.53;72.41;97203.03;30001;983;1858;-62
2021/09/08 01:40:31;;;;;;;;;;;;;;;14.52;72.27;97206.06;30001;983;1875;-61
2021/09/08 01:41:02;;;;;;;;;;;;;;;14.52;72.17;97204.16;30001;983;1875;-61
2021/09/08 01:41:33;;;;;;;;;;;;;;;14.53;72.42;97197.56;30001;983;1879;-61
2021/09/08 01:42:04;;;;;;;;;;;;;;;14.54;72.52;97201.91;30001;982;1875;-61
2021/09/08 01:42:35;;;;;;;;;;;;;;;14.54;72.37;97203.84;30001;982;1880;-62
2021/09/08 01:43:06;;;;;;;;;;;;;;;14.56;72.47;97201.56;30001;982;1858;-61
2021/09/08 01:43:37;;;;;;;;;;;;;;;14.55;72.32;97198.06;30001;982;1876;-62
2021/09/08 01:44:08;;;;;;;;;;;;;;;14.57;72.36;97198.53;30001;982;1876;-62
2021/09/08 01:44:39;;;;;;;;;;;;;;;14.57;72.38;97205.91;30001;982;1880;-62
2021/09/08 01:45:13;;;;;;;;;;;;;;;14.55;71.98;97203.53;30001;983;1875;-62
2021/09/08 01:45:44;;;;;;;;;;;;;;;14.53;72.17;97200.28;30001;983;1879;-62
2021/09/08 01:46:19;;;;;;;;;;;;;;;14.53;72.04;97203.03;30001;965;1893;-61
2021/09/08 01:46:51;;;;;;;;;;;;;;;14.52;72.06;97198.69;30001;983;1862;-61
2021/09/08 01:47:22;;;;;;;;;;;;;;;14.52;72.17;97195.16;30001;983;1871;-61
2021/09/08 01:47:54;;;;;;;;;;;;;;;14.51;72.49;97197.06;30001;983;1880;-61
2021/09/08 01:48:25;;;;;;;;;;;;;;;14.54;72.32;97199.19;30001;983;1875;-61
2021/09/08 01:48:56;;;;;;;;;;;;;;;14.53;72.43;97197.56;30001;983;1880;-61
2021/09/08 01:49:27;;;;;;;;;;;;;;;14.53;72.43;97200.28;30001;982;1858;-61
2021/09/08 01:49:57;;;;;;;;;;;;;;;14.53;72.19;97203.03;30001;982;1858;-61
2021/09/08 01:50:28;;;;;;;;;;;;;;;14.54;72.49;97196.44;30001;982;1876;-61
2021/09/08 01:50:59;;;;;;;;;;;;;;;14.53;72.40;97192.09;30001;982;1880;-62
2021/09/08 01:51:30;;;;;;;;;;;;;;;14.53;72.18;97194.03;30001;982;1876;-62
2021/09/08 01:52:00;;;;;;;;;;;;;;;14.51;72.21;97199.81;30001;982;1880;-62
2021/09/08 01:52:31;;;;;;;;;;;;;;;14.52;72.27;97195.94;30001;982;1876;-62
2021/09/08 01:53:02;;;;;;;;;;;;;;;14.51;72.51;97191.59;30001;983;1879;-60
2021/09/08 01:53:33;;;;;;;;;;;;;;;14.51;72.68;97191.59;30001;983;1857;-62
2021/09/08 01:54:04;;;;;;;;;;;;;;;14.50;72.55;97184.53;30001;983;1875;-61
2021/09/08 01:54:34;;;;;;;;;;;;;;;14.51;72.35;97194.34;30001;983;1875;-61
2021/09/08 01:55:09;;;;;;;;;;;;;;;14.51;72.50;97188.87;30001;983;1862;-61
2021/09/08 01:55:39;;;;;;;;;;;;;;;14.50;72.27;97190.00;30001;983;1871;-61
2021/09/08 01:56:10;;;;;;;;;;;;;;;14.50;72.49;97195.44;30001;983;1880;-62
2021/09/08 01:56:41;;;;;;;;;;;;;;;14.50;72.41;97184.53;30001;983;1875;-61
2021/09/08 01:57:12;;;;;;;;;;;;;;;14.51;72.29;97188.87;30001;982;1880;-62
2021/09/08 01:57:43;;;;;;;;;;;;;;;14.52;72.23;97192.41;30001;982;1876;-61
2021/09/08 01:58:14;;;;;;;;;;;;;;;14.51;72.51;97185.34;30001;982;1880;-62
2021/09/08 01:58:45;;;;;;;;;;;;;;;14.52;72.48;97190.50;30001;982;1858;-61
2021/09/08 01:59:16;;;;;;;;;;;;;;;14.52;72.14;97187.75;30001;982;1858;-61
2021/09/08 01:59:47;;;;;;;;;;;;;;;14.51;72.17;97183.41;30001;982;1876;-61
2021/09/08 02:00:18;;;;;;;;;;;;;;;14.51;72.49;97186.16;30001;983;1879;-61
2021/09/08 02:00:48;;;;;;;;;;;;;;;14.52;72.24;97186.97;30001;983;1875;-61
2021/09/08 02:01:22;;;;;;;;;;;;;;;14.51;72.69;97188.87;30001;983;1879;-61
2021/09/08 02:01:54;;;;;;;;;;;;;;;14.51;72.33;97188.87;30001;983;1875;-61
2021/09/08 02:02:25;;;;;;;;;;;;;;;14.52;72.49;97186.97;30001;983;1879;-61
2021/09/08 02:02:56;;;;;;;;;;;;;;;14.51;72.37;97180.69;30001;983;1875;-61
2021/09/08 02:03:27;;;;;;;;;;;;;;;14.52;72.60;97187.75;30001;983;1880;-60
2021/09/08 02:03:58;;;;;;;;;;;;;;;14.52;72.40;97189.69;30001;983;1793;-61
2021/09/08 02:04:28;;;;;;;;;;;;;;;14.52;72.58;97192.41;30001;982;1862;-62
2021/09/08 02:04:59;;;;;;;;;;;;;;;14.50;72.46;97187.25;30001;982;1871;-61
2021/09/08 02:05:33;;;;;;;;;;;;;;;14.50;72.41;97184.53;30001;982;1880;-62
2021/09/08 02:06:17;;;;;;;;;;;;;;;14.49;72.39;97188.37;30001;982;1876;-61
2021/09/08 02:06:49;;;;;;;;;;;;;;;14.50;72.41;97183.72;30001;982;1880;-62
2021/09/08 02:07:19;;;;;;;;;;;;;;;14.49;72.68;97182.91;30001;982;1858;-61
2021/09/08 02:07:50;;;;;;;;;;;;;;;14.50;72.50;97195.44;30001;983;1875;-62
2021/09/08 02:08:21;;;;;;;;;;;;;;;14.48;72.47;97186.75;30001;983;1875;-61
2021/09/08 02:08:53;;;;;;;;;;;;;;;14.49;72.71;97193.84;30001;983;1879;-62
2021/09/08 02:09:24;;;;;;;;;;;;;;;14.48;72.63;97186.75;30001;983;1875;-61
2021/09/08 02:09:56;;;;;;;;;;;;;;;14.48;72.81;97197.69;30001;983;1879;-61
2021/09/08 02:10:27;;;;;;;;;;;;;;;14.48;72.54;97191.41;30001;983;1875;-62
2021/09/08 02:10:58;;;;;;;;;;;;;;;14.48;72.50;97189.50;30001;983;1862;-62
2021/09/08 02:11:29;;;;;;;;;;;;;;;14.47;72.71;97190.63;30001;983;1871;-61
2021/09/08 02:12:00;;;;;;;;;;;;;;;14.48;72.72;97192.22;30001;982;1880;-61
2021/09/08 02:12:30;;;;;;;;;;;;;;;14.47;72.73;97189.81;30001;982;1875;-61
2021/09/08 02:13:03;;;;;;;;;;;;;;;14.47;73.00;97187.87;30001;982;1880;-61
2021/09/08 02:13:34;;;;;;;;;;;;;;;14.47;72.69;97190.63;30001;982;1858;-61
2021/09/08 02:14:05;;;;;;;;;;;;;;;14.46;72.93;97189.00;30001;982;1876;-61
2021/09/08 02:14:36;;;;;;;;;;;;;;;14.46;73.05;97194.47;30001;983;1875;-62
2021/09/08 02:15:07;;;;;;;;;;;;;;;14.46;72.99;97188.19;30001;983;1879;-61
2021/09/08 02:15:38;;;;;;;;;;;;;;;14.45;72.67;97181.94;30001;983;1875;-61
2021/09/08 02:16:09;;;;;;;;;;;;;;;14.45;73.08;97184.66;30001;980;1882;-62
2021/09/08 02:16:40;;;;;;;;;;;;;;;14.45;73.13;97187.38;30001;983;1857;-61
2021/09/08 02:17:11;;;;;;;;;;;;;;;14.44;72.92;97183.03;30001;983;1875;-60
2021/09/08 02:17:42;;;;;;;;;;;;;;;14.44;72.84;97180.31;30001;983;1875;-61
2021/09/08 02:18:13;;;;;;;;;;;;;;;14.45;73.24;97183.84;30001;983;1880;-62
2021/09/08 02:18:44;;;;;;;;;;;;;;;14.43;72.98;97184.16;30001;983;1875;-62
2021/09/08 02:19:15;;;;;;;;;;;;;;;14.43;73.25;97178.69;30001;983;1880;-62
2021/09/08 02:19:46;;;;;;;;;;;;;;;14.43;72.98;97181.44;30001;982;1875;-61
2021/09/08 02:20:17;;;;;;;;;;;;;;;14.43;72.98;97181.44;30001;982;1880;-62
2021/09/08 02:20:47;;;;;;;;;;;;;;;14.44;73.30;97179.50;30001;982;1858;-61
2021/09/08 02:21:18;;;;;;;;;;;;;;;14.43;73.33;97183.34;30001;982;1876;-62
2021/09/08 02:21:49;;;;;;;;;;;;;;;14.44;73.33;97185.78;30001;982;1858;-61
2021/09/08 02:22:20;;;;;;;;;;;;;;;14.43;72.99;97184.16;30001;983;1875;-61
2021/09/08 02:22:51;;;;;;;;;;;;;;;14.43;72.99;97184.16;30001;983;1875;-62
2021/09/08 02:23:22;;;;;;;;;;;;;;;14.43;73.08;97184.16;30001;983;1879;-62
2021/09/08 02:23:52;;;;;;;;;;;;;;;14.43;73.05;97183.34;30002;788;1014;-61
2021/09/08 02:24:23;;;;;;;;;;;;;;;14.41;73.06;97181.72;30001;983;1862;-62
2021/09/08 02:24:54;;;;;;;;;;;;;;;14.43;73.27;97186.09;30001;983;1871;-62
2021/09/08 02:25:25;;;;;;;;;;;;;;;14.42;73.45;97182.53;30001;970;1899;-61
2021/09/08 02:25:56;;;;;;;;;;;;;;;14.42;73.42;97182.53;30001;964;1877;-61
2021/09/08 02:26:27;;;;;;;;;;;;;;;14.40;73.18;97180.09;30001;983;1875;-62
2021/09/08 02:26:58;;;;;;;;;;;;;;;14.40;73.22;97184.75;30001;983;1875;-62
2021/09/08 02:27:29;;;;;;;;;;;;;;;14.40;73.57;97179.28;30001;982;1880;-61
2021/09/08 02:28:00;;;;;;;;;;;;;;;14.39;73.61;97177.66;30001;982;1858;-62
2021/09/08 02:28:31;;;;;;;;;;;;;;;14.39;73.25;97177.66;30001;982;1876;-62
2021/09/08 02:29:01;;;;;;;;;;;;;;;14.38;73.66;97176.06;30001;982;1876;-61
2021/09/08 02:29:32;;;;;;;;;;;;;;;14.37;73.48;97175.25;30001;983;1879;-62
2021/09/08 02:30:04;;;;;;;;;;;;;;;14.37;73.54;97177.16;30001;983;1875;-62
2021/09/08 02:30:35;;;;;;;;;;;;;;;14.37;73.72;97175.25;30001;983;1862;-61
2021/09/08 02:31:06;;;;;;;;;;;;;;;14.37;73.62;97179.91;30001;983;1871;-61
2021/09/08 02:31:37;;;;;;;;;;;;;;;14.35;73.73;97166.56;30001;983;1866;-62
2021/09/08 02:32:08;;;;;;;;;;;;;;;14.34;73.45;97175.06;30001;983;1875;-62
2021/09/08 02:32:39;;;;;;;;;;;;;;;14.34;73.79;97175.06;30001;983;1884;-62
2021/09/08 02:33:10;;;;;;;;;;;;;;;14.33;73.54;97171.53;30001;983;1880;-62
2021/09/08 02:33:41;;;;;;;;;;;;;;;14.33;73.75;97167.97;30001;983;1884;-62
2021/09/08 02:34:12;;;;;;;;;;;;;;;14.32;73.89;97172.63;30001;983;1880;-62
2021/09/08 02:34:42;;;;;;;;;;;;;;;14.32;73.56;97169.09;30001;982;1884;-62
2021/09/08 02:35:13;;;;;;;;;;;;;;;14.32;73.76;97178.09;30001;982;1880;-61
2021/09/08 02:35:44;;;;;;;;;;;;;;;14.32;73.83;97171.81;30001;982;1884;-61
2021/09/08 02:36:15;;;;;;;;;;;;;;;14.32;73.86;97169.09;30001;982;1880;-62
2021/09/08 02:36:46;;;;;;;;;;;;;;;14.34;73.72;97175.06;30001;982;1867;-62
2021/09/08 02:37:17;;;;;;;;;;;;;;;14.32;73.93;97172.63;30001;983;1875;-62
2021/09/08 02:37:47;;;;;;;;;;;;;;;14.33;73.60;97178.91;30001;983;1883;-61
2021/09/08 02:38:18;;;;;;;;;;;;;;;14.33;73.91;97165.25;30001;983;1879;-61
2021/09/08 02:38:49;;;;;;;;;;;;;;;14.33;73.91;97171.53;30001;983;1884;-61
2021/09/08 02:39:20;;;;;;;;;;;;;;;14.33;73.83;97168.78;30001;983;1862;-62
2021/09/08 02:39:51;;;;;;;;;;;;;;;14.33;73.97;97170.72;30001;983;1879;-62
2021/09/08 02:40:22;;;;;;;;;;;;;;;14.34;73.99;97175.06;30001;983;1879;-60
2021/09/08 02:40:53;;;;;;;;;;;;;;;14.32;73.89;97167.19;30001;983;1884;-61
2021/09/08 02:41:24;;;;;;;;;;;;;;;14.33;73.97;97170.72;30001;983;1880;-62
2021/09/08 02:41:55;;;;;;;;;;;;;;;14.33;73.91;97170.72;30001;983;1884;-62
2021/09/08 02:42:26;;;;;;;;;;;;;;;14.31;73.87;97170.22;30001;982;1862;-64
2021/09/08 02:42:57;;;;;;;;;;;;;;;14.31;73.92;97164.75;30001;982;1880;-61
2021/09/08 02:43:28;;;;;;;;;;;;;;;14.31;73.68;97170.22;30001;982;1880;-61
2021/09/08 02:43:58;;;;;;;;;;;;;;;14.32;73.93;97169.09;30001;982;1884;-62
2021/09/08 02:44:29;;;;;;;;;;;;;;;14.32;73.91;97166.37;30001;982;1880;-61
2021/09/08 02:45:00;;;;;;;;;;;;;;;14.31;73.57;97167.50;30001;983;1883;-61
2021/09/08 02:45:31;;;;;;;;;;;;;;;14.32;73.84;97169.91;30001;983;1879;-61
2021/09/08 02:46:03;;;;;;;;;;;;;;;14.30;73.73;97168.59;30001;983;1866;-62
2021/09/08 02:46:34;;;;;;;;;;;;;;;14.31;73.54;97162.03;30001;983;1857;-61
2021/09/08 02:47:05;;;;;;;;;;;;;;;14.29;73.91;97167.00;30001;983;1884;-61
2021/09/08 02:47:36;;;;;;;;;;;;;;;14.28;74.00;97163.44;30001;983;1879;-62